Bookmark and Share
Track history (hours):
 

As Olivia

Last reported at 2014-Apr-24 10:33 UTC. Time now 2014-Apr-24 11:27 UTC.
Position N 31°23' E 121°36'.

Length 146 m; draft 6.4 m.

Type: Ship (hazmat cat B). MMSI: 548767000.

NotesDate/timePositionNaut miles runAvg speedWind from/ knotsBaromVisibWave heightAir tempDewpointWater temp
2014-Apr-24 10:33N 31°23' E 121°36'10 9.8
2014-Apr-24 09:33N 31°29' E 121°27'1111.0
2014-Apr-24 08:33N 31°36' E 121°17'1413.4
2014-Apr-24 07:32N 31°45' E 121°05'1211.8
2014-Apr-24 06:33N 31°51' E 120°53'1211.8
2014-Apr-24 05:33N 32°01' E 120°45'1010.1
2014-Apr-24 04:33N 32°03' E 120°33'5 5.0
2014-Apr-24 03:28N 32°04' E 120°27'0 0.0
2014-Apr-24 02:31N 32°04' E 120°27'0 0.0
2014-Apr-24 01:31N 32°04' E 120°27'0 0.0
2014-Apr-24 00:31N 32°04' E 120°27'0 0.0
2014-Apr-23 23:31N 32°04' E 120°27'0 0.0
2014-Apr-23 22:31N 32°04' E 120°27'0 0.0
2014-Apr-23 21:31N 32°04' E 120°27'0 0.0
2014-Apr-23 20:31N 32°04' E 120°27'0 0.0
2014-Apr-23 19:28N 32°04' E 120°27'0 0.0
2014-Apr-23 18:28N 32°04' E 120°27'0 0.0
2014-Apr-23 17:28N 32°04' E 120°27'0 0.0
2014-Apr-23 16:28N 32°04' E 120°27'0 0.0
2014-Apr-23 15:31N 32°04' E 120°27'0 0.0
2014-Apr-23 14:31N 32°04' E 120°27'0 0.0
2014-Apr-23 13:31N 32°04' E 120°27'0 0.0
2014-Apr-23 12:31N 32°04' E 120°27'0 0.0
2014-Apr-23 11:28N 32°04' E 120°27'0 0.0
2014-Apr-23 10:22N 32°04' E 120°27'0 0.0
2014-Apr-23 09:31N 32°04' E 120°27'0 0.0
2014-Apr-23 08:31N 32°04' E 120°27'0 0.0
2014-Apr-23 07:31N 32°04' E 120°27'0 0.0
2014-Apr-23 06:28N 32°04' E 120°27'0 0.0
2014-Apr-23 05:28N 32°04' E 120°27'0 0.1
2014-Apr-23 04:31N 32°04' E 120°27'0 0.1
2014-Apr-23 03:31N 32°04' E 120°27'0 0.1
2014-Apr-23 02:34N 32°04' E 120°27'8 7.8
2014-Apr-23 01:33N 32°01' E 120°36'1212.4
2014-Apr-23 00:33N 31°59' E 120°50'1413.9
2014-Apr-22 23:34N 31°47' E 120°58'1313.5
2014-Apr-22 22:34N 31°40' E 121°12'10 9.3
2014-Apr-22 21:29N 31°34' E 121°21'0 0.1
2014-Apr-22 20:29N 31°34' E 121°21'0 0.1
2014-Apr-22 18:32N 31°34' E 121°21'0 0.0
2014-Apr-22 17:32N 31°34' E 121°21'0 0.0
2014-Apr-22 15:11N 31°34' E 121°21'0 0.0
2014-Apr-22 13:11N 31°34' E 121°21'0 0.1
2014-Apr-22 12:17N 31°34' E 121°21'  
2014-Apr-18 05:33N 29°59' E 121°48'1110.9
2014-Apr-18 04:33N 29°57' E 121°60'1312.7
2014-Apr-18 03:33N 29°51' E 122°12'10 9.1
2014-Apr-18 02:28N 29°45' E 122°22'1 0.7
2014-Apr-18 01:30N 29°45' E 122°22'0 0.0
2014-Apr-18 00:30N 29°45' E 122°22'0 0.1
2014-Apr-17 23:24N 29°45' E 122°22'0 0.1
2014-Apr-17 22:33N 29°45' E 122°22'0 0.1
2014-Apr-17 21:30N 29°45' E 122°23'0 0.0
2014-Apr-17 20:30N 29°45' E 122°23'0 0.0
2014-Apr-17 19:30N 29°45' E 122°23'0 0.0
2014-Apr-17 18:30N 29°45' E 122°23'0 0.1
2014-Apr-17 17:30N 29°45' E 122°23'0 0.1
2014-Apr-17 16:24N 29°45' E 122°22'0 0.0
2014-Apr-17 06:30N 29°45' E 122°23'0 0.0
2014-Apr-17 05:30N 29°45' E 122°23'0 0.1
2014-Apr-17 04:30N 29°45' E 122°23'0 0.1
2014-Apr-17 03:30N 29°45' E 122°22'0 0.0
2014-Apr-17 02:24N 29°45' E 122°22'0 0.0
2014-Apr-17 01:30N 29°45' E 122°22'0 0.1
2014-Apr-17 00:30N 29°45' E 122°22'0 0.0
2014-Apr-16 23:24N 29°45' E 122°22'0 0.2
2014-Apr-16 22:34N 29°45' E 122°23'7 7.4
2014-Apr-16 21:33N 29°45' E 122°31'1211.9
2014-Apr-16 20:33N 29°48' E 122°44'45512.3
2014-Apr-15 07:33N 35°00' E 129°17'  

Dump ship's entire track history

sailing weather and tide predictions

As Olivia — DYQC — position and weather